Terminal Aerodrome Forecast
Issued by NWS Albany, NY

Home | Current Version | Previous Version | Text Only | Print | Product List | Glossary On
Versions: 1 2 3 4 5 6 7 8 9 10 11 12 13 14 15 16 17 18 19 20
000
FTUS41 KALY 282339
TAFALB
TAF
KALB 282339Z 2900/2924 VRB03KT 4SM BR BKN015 OVC025
     FM290600 33005KT P6SM OVC015
     FM291400 32010G16KT P6SM OVC025
     FM291600 32013G23KT P6SM OVC035
     FM291800 32018G28KT P6SM BKN050=

USA.gov is the U.S. government's official web portal to all federal, state and local government web resources and services.